Time;durP1;ratioP1;P1;durP2;ratioP2;P2;SDS_P1;SDS_P2;PMS_P1;PMS_P2;Temp;Humidity;BMP_temperature;BMP_pressure;BME280_temperature;BME280_humidity;BME280_pressure;Samples;Min_cycle;Max_cycle;Signal;HPM_P1;HPM_P2
2023/08/20 00:03:12;;;;;;;11.70;10.20;;;;;;;17.69;81.31;97663.17;105792;1264;98966;-77
2023/08/20 00:06:04;;;;;;;14.50;10.20;;;;;;;17.69;81.34;97665.78;106933;1247;100045;-78
2023/08/20 00:08:56;;;;;;;11.90;10.00;;;;;;;17.66;81.36;97663.45;106192;1257;96812;-76
2023/08/20 00:11:56;;;;;;;14.20;10.20;;;;;;;17.62;81.38;97666.02;106810;1247;97297;-78
2023/08/20 00:15:19;;;;;;;15.90;10.60;;;;;;;17.57;81.37;97665.80;105720;1264;100717;-85
2023/08/20 00:18:19;;;;;;;14.30;10.10;;;;;;;17.49;81.59;97657.75;105537;1263;100300;-83
2023/08/20 00:21:02;;;;;;;13.50;10.10;;;;;;;17.46;81.60;97654.17;108197;1263;99582;-84
2023/08/20 00:24:09;;;;;;;13.00;9.40;;;;;;;17.45;81.57;97654.43;104928;1267;96809;-86
2023/08/20 00:27:16;;;;;;;12.60;10.20;;;;;;;17.45;81.58;97651.91;104411;1272;96844;-85
2023/08/20 01:10:32;;;;;;;14.10;11.40;;;;;;;17.32;83.10;97646.89;105419;1263;98079;-76
2023/08/20 01:13:28;;;;;;;13.40;11.50;;;;;;;17.31;83.04;97644.80;106342;1253;99768;-79
2023/08/20 01:16:25;;;;;;;12.90;11.30;;;;;;;17.28;83.11;97648.64;105706;1258;99241;-76
2023/08/20 01:19:32;;;;;;;18.70;11.40;;;;;;;17.25;82.99;97647.07;105217;1267;95949;-77
2023/08/20 01:22:40;;;;;;;15.60;11.20;;;;;;;17.16;82.97;97650.40;104319;1274;96094;-76
2023/08/20 01:25:59;;;;;;;12.50;11.20;;;;;;;17.06;83.31;97649.41;104349;1285;98516;-78
2023/08/20 01:52:46;;;;;;;12.80;11.50;;;;;;;17.32;83.53;97641.91;101623;1291;644611;-84
2023/08/20 01:55:54;;;;;;;17.90;11.40;;;;;;;17.42;83.38;97644.02;99157;1285;5342181;-87
2023/08/20 01:59:02;;;;;;;14.50;11.30;;;;;;;17.30;83.40;97645.00;101957;1290;95972;-85
2023/08/20 02:26:23;;;;;;;11.90;9.80;;;;;;;17.21;82.41;97652.18;107120;1250;98118;-83
2023/08/20 02:29:23;;;;;;;13.20;9.90;;;;;;;17.16;82.33;97652.69;105846;1258;101114;-84
2023/08/20 02:32:32;;;;;;;14.20;9.60;;;;;;;17.11;82.44;97652.88;105121;1267;99891;-84
2023/08/20 02:35:39;;;;;;;11.30;9.60;;;;;;;17.03;82.39;97657.92;104626;1271;95970;-86
2023/08/20 02:38:46;;;;;;;11.00;9.80;;;;;;;16.94;82.47;97656.40;104182;1278;95997;-84
2023/08/20 04:06:35;;;;;;;25.90;18.70;;;;;;;16.45;84.00;97680.62;105573;1266;95766;-80
2023/08/20 04:09:21;;;;;;;19.40;16.90;;;;;;;16.43;84.15;97681.40;106998;1249;98456;-80
2023/08/20 04:12:18;;;;;;;17.30;14.20;;;;;;;16.44;84.37;97682.23;106507;1257;101431;-80
2023/08/20 04:15:25;;;;;;;16.00;13.80;;;;;;;16.39;84.55;97679.85;105817;1264;98714;-80
2023/08/20 04:18:32;;;;;;;15.80;14.10;;;;;;;16.36;84.60;97678.86;105799;1261;96096;-76
2023/08/20 04:21:38;;;;;;;19.30;15.60;;;;;;;16.38;84.54;97679.61;105245;1263;97215;-78
2023/08/20 04:24:11;;;;;;;22.20;16.80;;;;;;;16.41;84.71;97682.08;104859;1264;99346;-81
2023/08/20 04:27:18;;;;;;;20.40;17.80;;;;;;;16.43;84.78;97683.58;104839;1269;109033;-83
2023/08/20 04:30:18;;;;;;;22.30;19.60;;;;;;;16.41;85.09;97683.33;104819;1276;98953;-80
2023/08/20 04:33:25;;;;;;;23.50;18.70;;;;;;;16.39;85.19;97684.11;104817;1270;97239;-81
2023/08/20 04:36:38;;;;;;;23.90;18.20;;;;;;;16.41;85.35;97681.05;104384;1280;95996;-81
2023/08/20 05:06:00;;;;;;;19.50;17.50;;;;;;;17.25;85.59;97694.98;105509;1264;96336;-78
2023/08/20 05:09:07;;;;;;;21.90;18.20;;;;;;;17.24;85.66;97689.77;106850;1247;106971;-81
2023/08/20 05:12:14;;;;;;;22.20;19.60;;;;;;;17.24;85.63;97689.98;106389;1255;100232;-77
2023/08/20 05:15:21;;;;;;;20.10;18.20;;;;;;;17.25;85.54;97694.04;105048;1266;98742;-78
2023/08/20 05:47:31;;;;;;;15.90;14.30;;;;;;;18.10;85.67;97691.84;105240;1264;94455;-77
2023/08/20 05:50:38;;;;;;;16.70;15.00;;;;;;;18.11;85.91;97693.00;106496;1255;98319;-79
2023/08/20 05:53:45;;;;;;;16.50;14.70;;;;;;;18.13;86.13;97688.53;106722;1255;101247;-78
2023/08/20 05:56:52;;;;;;;16.70;15.10;;;;;;;18.16;86.21;97691.80;105964;1257;98886;-77
2023/08/20 05:59:59;;;;;;;15.90;14.40;;;;;;;18.18;86.42;97689.77;104797;1268;97345;-77
2023/08/20 06:45:47;;;;;;;18.30;16.50;;;;;;;19.70;87.73;97702.02;105116;1264;95825;-82
2023/08/20 06:48:54;;;;;;;18.90;16.90;;;;;;;19.79;87.60;97702.41;106687;1246;98420;-77
2023/08/20 06:52:01;;;;;;;18.00;16.30;;;;;;;19.87;87.43;97705.91;105276;1260;100253;-78
2023/08/20 06:55:08;;;;;;;18.00;16.20;;;;;;;19.97;87.27;97705.11;104201;1278;99919;-78
2023/08/20 06:58:15;;;;;;;17.50;15.90;;;;;;;20.07;87.30;97702.98;104202;1285;97186;-79
2023/08/20 07:01:18;;;;;;;18.50;16.50;;;;;;;20.19;87.53;97707.38;104092;1277;95923;-83
2023/08/20 07:04:30;;;;;;;19.40;16.50;;;;;;;20.31;87.24;97704.27;104220;1282;99440;-82
2023/08/20 08:46:19;;;;;;;10.90;9.80;;;;;;;30.65;64.63;97685.35;105646;1265;95865;-82
2023/08/20 08:48:47;;;;;;;10.10;8.90;;;;;;;30.92;64.21;97685.19;107000;1250;95945;-84
2023/08/20 08:51:14;;;;;;;10.60;8.80;;;;;;;31.15;62.98;97685.72;107112;1257;99905;-83
2023/08/20 08:53:44;;;;;;;11.70;9.80;;;;;;;31.36;61.73;97682.81;106821;1245;95969;-83
2023/08/20 08:56:11;;;;;;;10.50;8.50;;;;;;;31.60;60.95;97682.14;107166;1247;95780;-86
2023/08/20 08:58:37;;;;;;;10.90;8.10;;;;;;;31.82;60.37;97680.50;106699;1260;96920;-84
2023/08/20 09:01:04;;;;;;;9.70;8.70;;;;;;;32.05;59.80;97681.63;106708;1253;96174;-83
2023/08/20 09:03:30;;;;;;;10.40;9.20;;;;;;;32.26;58.65;97685.19;107033;1259;96007;-85
2023/08/20 09:06:00;;;;;;;11.20;8.90;;;;;;;32.41;57.36;97680.48;107009;1250;96287;-83
2023/08/20 09:08:28;;;;;;;10.60;9.10;;;;;;;32.60;56.65;97683.73;106975;1248;96093;-84
2023/08/20 09:10:57;;;;;;;10.30;9.30;;;;;;;32.74;56.34;97687.09;106851;1259;101046;-83
2023/08/20 09:13:33;;;;;;;10.70;9.50;;;;;;;32.86;55.05;97683.75;107047;1248;100009;-84
2023/08/20 09:16:00;;;;;;;10.70;9.60;;;;;;;32.91;54.63;97683.59;107053;1251;98731;-85
2023/08/20 09:18:26;;;;;;;10.20;9.30;;;;;;;32.92;53.70;97682.42;107014;1245;96136;-78
2023/08/20 09:20:52;;;;;;;10.40;9.40;;;;;;;32.93;53.71;97679.75;107063;1258;95914;-79
2023/08/20 09:23:19;;;;;;;10.30;9.40;;;;;;;32.97;53.89;97681.62;107098;1243;96768;-80
2023/08/20 09:25:46;;;;;;;10.00;9.10;;;;;;;33.03;53.73;97681.99;106981;1258;98803;-79
2023/08/20 09:28:12;;;;;;;10.20;9.20;;;;;;;33.01;52.84;97684.31;106759;1259;95901;-79
2023/08/20 09:30:41;;;;;;;12.70;9.40;;;;;;;33.03;52.91;97682.70;106693;1254;96020;-81
2023/08/20 09:33:13;;;;;;;10.60;9.60;;;;;;;33.09;51.92;97682.58;106775;1262;96766;-82
2023/08/20 09:35:49;;;;;;;10.60;9.60;;;;;;;33.04;52.50;97681.38;106759;1259;100252;-80
2023/08/20 09:38:19;;;;;;;11.40;10.30;;;;;;;33.10;52.41;97685.14;107066;1247;98962;-82
2023/08/20 09:40:49;;;;;;;10.50;9.50;;;;;;;33.19;52.76;97688.73;106509;1253;97202;-85
2023/08/20 09:43:16;;;;;;;11.30;9.00;;;;;;;33.29;51.53;97689.14;106658;1254;96161;-80
2023/08/20 09:45:46;;;;;;;10.50;9.50;;;;;;;33.29;50.44;97688.19;106515;1254;100858;-80
2023/08/20 09:48:18;;;;;;;10.30;9.30;;;;;;;33.26;49.94;97684.17;106720;1264;100109;-79
2023/08/20 09:50:47;;;;;;;9.30;8.50;;;;;;;33.24;48.90;97682.91;106481;1262;98601;-78
2023/08/20 09:53:44;;;;;;;9.50;8.60;;;;;;;33.17;48.91;97678.83;106600;1255;96043;-91
2023/08/20 09:56:22;;;;;;;9.80;9.00;;;;;;;33.20;48.35;97678.20;106539;1253;95976;-86
2023/08/20 09:58:49;;;;;;;9.30;8.40;;;;;;;33.28;48.37;97674.48;106412;1251;100645;-86
2023/08/20 10:01:16;;;;;;;9.40;8.50;;;;;;;33.35;48.02;97672.36;106390;1263;97156;-89
2023/08/20 10:03:43;;;;;;;10.10;9.20;;;;;;;33.41;48.09;97664.23;106125;1258;96628;-88
2023/08/20 10:06:11;;;;;;;9.00;8.20;;;;;;;33.46;47.59;97664.08;106434;1252;96488;-91
2023/08/20 10:08:38;;;;;;;9.80;8.50;;;;;;;33.50;47.34;97668.89;106382;1266;96341;-78
2023/08/20 10:11:04;;;;;;;9.30;8.50;;;;;;;33.35;47.34;97665.48;106453;1250;97601;-82
2023/08/20 10:13:31;;;;;;;9.20;8.20;;;;;;;33.32;46.90;97664.36;107018;1255;96025;-91
2023/08/20 10:15:58;;;;;;;10.80;8.30;;;;;;;33.32;47.16;97661.17;107281;1259;96647;-89
2023/08/20 10:18:24;;;;;;;9.30;8.50;;;;;;;33.43;46.90;97661.33;107428;1257;95910;-88
2023/08/20 10:20:51;;;;;;;10.10;8.30;;;;;;;33.55;46.53;97657.70;106997;1247;96433;-89
2023/08/20 10:23:23;;;;;;;9.10;8.20;;;;;;;33.64;46.08;97653.80;106985;1249;96963;-88
2023/08/20 10:25:51;;;;;;;;;;;;;;;33.68;46.00;97653.84;107038;1256;99013;-89
2023/08/20 10:28:26;;;;;;;11.50;8.10;;;;;;;33.62;46.39;97653.99;107009;1251;95939;-77
2023/08/20 10:31:12;;;;;;;8.50;7.80;;;;;;;33.69;46.75;97654.83;107484;1244;95925;-77
2023/08/20 10:33:49;;;;;;;9.40;8.60;;;;;;;33.79;45.95;97653.05;106956;1248;99861;-86
2023/08/20 10:36:17;;;;;;;8.60;7.40;;;;;;;33.85;45.93;97647.23;107026;1256;100055;-89
2023/08/20 10:38:47;;;;;;;8.30;7.10;;;;;;;33.91;45.26;97643.55;106987;1249;99856;-92
2023/08/20 10:41:16;;;;;;;8.20;7.50;;;;;;;33.96;45.28;97642.92;106962;1251;97528;-91
2023/08/20 10:43:50;;;;;;;7.80;7.10;;;;;;;34.03;44.64;97641.73;106911;1251;96371;-87
2023/08/20 10:46:21;;;;;;;8.80;7.50;;;;;;;34.03;44.68;97639.65;107176;1248;100683;-81
2023/08/20 10:48:48;;;;;;;;;;;;;;;34.03;45.40;97636.05;106854;1251;101604;-89
2023/08/20 10:51:19;;;;;;;7.30;6.20;;;;;;;34.05;44.72;97633.79;106821;1248;95963;-87
2023/08/20 10:54:03;;;;;;;8.30;7.50;;;;;;;34.05;44.52;97635.06;106901;1250;95847;-88
2023/08/20 10:56:54;;;;;;;7.80;7.10;;;;;;;34.06;44.50;97632.29;106982;1251;96158;-87
2023/08/20 10:59:27;;;;;;;7.50;6.70;;;;;;;34.08;43.92;97633.70;107019;1250;99600;-86
2023/08/20 11:01:58;;;;;;;8.30;7.30;;;;;;;34.15;43.95;97636.36;106735;1263;101211;-81
2023/08/20 11:04:32;;;;;;;7.50;6.80;;;;;;;34.22;43.99;97633.91;106013;1261;99926;-81
2023/08/20 11:07:00;;;;;;;10.10;7.60;;;;;;;34.28;43.68;97631.92;106760;1248;96685;-82
2023/08/20 11:09:28;;;;;;;9.00;6.80;;;;;;;34.33;43.25;97629.17;106764;1251;95957;-81
2023/08/20 11:11:55;;;;;;;7.70;6.80;;;;;;;34.34;43.24;97629.05;106569;1253;101124;-91
2023/08/20 11:14:22;;;;;;;7.30;6.60;;;;;;;34.33;42.74;97624.23;106904;1258;96040;-90
2023/08/20 11:16:49;;;;;;;10.10;7.30;;;;;;;34.32;42.87;97623.23;106806;1251;96207;-81
2023/08/20 11:19:23;;;;;;;7.50;6.90;;;;;;;34.21;42.78;97616.35;106715;1250;95938;-82
2023/08/20 11:21:50;;;;;;;8.20;7.50;;;;;;;33.93;43.26;97616.89;106907;1248;95888;-80
2023/08/20 11:24:17;;;;;;;8.70;7.50;;;;;;;33.61;43.38;97616.88;106840;1248;96215;-82
2023/08/20 11:26:47;;;;;;;8.70;7.60;;;;;;;33.46;43.97;97618.90;106594;1260;96580;-83
2023/08/20 11:29:19;;;;;;;10.80;7.50;;;;;;;33.47;44.43;97619.88;106584;1259;99996;-89
2023/08/20 11:31:46;;;;;;;8.40;7.60;;;;;;;33.51;44.32;97616.18;106682;1261;95903;-88
2023/08/20 11:34:13;;;;;;;8.70;8.00;;;;;;;33.53;44.56;97614.15;106845;1241;96020;-85
2023/08/20 11:36:40;;;;;;;8.80;7.70;;;;;;;33.50;44.93;97616.05;106763;1254;97147;-85
2023/08/20 11:39:08;;;;;;;9.20;8.00;;;;;;;33.41;45.27;97611.55;106476;1248;97767;-90
2023/08/20 11:41:38;;;;;;;8.30;7.60;;;;;;;33.28;45.58;97612.69;106461;1252;95833;-90
2023/08/20 11:44:05;;;;;;;8.70;7.90;;;;;;;33.36;45.30;97612.67;106508;1251;96886;-86
2023/08/20 11:46:32;;;;;;;9.00;7.50;;;;;;;33.47;44.85;97611.41;106468;1254;95926;-78
2023/08/20 11:49:10;;;;;;;7.80;7.10;;;;;;;33.47;45.53;97609.65;106469;1254;96687;-77
2023/08/20 11:51:42;;;;;;;7.80;7.10;;;;;;;33.47;45.09;97605.01;106963;1245;101310;-77
2023/08/20 11:54:09;;;;;;;;;;;;;;;33.53;43.93;97604.15;106953;1251;100081;-77
2023/08/20 11:56:35;;;;;;;6.70;6.10;;;;;;;33.53;43.89;97603.85;107014;1244;96766;-81
2023/08/20 11:59:02;;;;;;;7.70;7.00;;;;;;;33.59;43.08;97603.52;106488;1251;97535;-77
2023/08/20 12:01:32;;;;;;;7.60;6.90;;;;;;;33.61;42.36;97606.77;105987;1260;98024;-77
2023/08/20 12:04:06;;;;;;;7.90;7.30;;;;;;;33.59;43.17;97604.48;105680;1261;100235;-89
2023/08/20 12:06:35;;;;;;;7.60;7.00;;;;;;;33.62;43.10;97606.48;105823;1259;99699;-82
2023/08/20 12:09:18;;;;;;;7.70;7.10;;;;;;;33.60;43.67;97600.35;105795;1259;97899;-82
2023/08/20 12:11:50;;;;;;;8.30;6.70;;;;;;;33.57;43.58;97600.68;105956;1255;97605;-85
2023/08/20 12:14:17;;;;;;;;;;;;;;;33.60;43.52;97595.48;105970;1260;103528;-82
2023/08/20 12:16:44;;;;;;;7.10;6.60;;;;;;;33.69;43.04;97598.68;106528;1246;99818;-86
2023/08/20 12:19:10;;;;;;;7.60;6.90;;;;;;;33.74;43.10;97598.54;106609;1248;97497;-86
2023/08/20 12:21:36;;;;;;;8.40;6.70;;;;;;;33.78;42.96;97597.69;106729;1248;96575;-89
2023/08/20 12:24:04;;;;;;;7.40;6.70;;;;;;;33.74;43.24;97594.67;106493;1248;97077;-91
2023/08/20 12:26:30;;;;;;;8.80;6.40;;;;;;;33.70;43.22;97597.73;106221;1247;100240;-80
2023/08/20 12:28:57;;;;;;;7.20;6.40;;;;;;;33.72;42.20;97598.12;106586;1251;97493;-83
2023/08/20 12:31:23;;;;;;;6.60;5.90;;;;;;;33.77;41.93;97597.11;106795;1259;96540;-87
2023/08/20 12:33:49;;;;;;;8.20;6.30;;;;;;;33.82;41.50;97598.92;107181;1248;97311;-87
2023/08/20 12:36:15;;;;;;;6.80;6.30;;;;;;;33.86;41.92;97593.66;107447;1250;100356;-87
2023/08/20 12:38:42;;;;;;;6.90;6.40;;;;;;;33.90;41.49;97592.85;107851;1244;97080;-87
2023/08/20 12:41:12;;;;;;;7.50;6.30;;;;;;;33.90;41.35;97587.31;107985;1233;96762;-87
2023/08/20 12:43:38;;;;;;;7.40;6.70;;;;;;;33.95;41.43;97581.67;107698;1240;96754;-87
2023/08/20 12:46:05;;;;;;;6.80;6.20;;;;;;;33.98;41.40;97582.95;108010;1237;97000;-91
2023/08/20 12:48:31;;;;;;;7.40;6.70;;;;;;;33.99;41.89;97583.13;108079;1241;97778;-86
2023/08/20 12:50:57;;;;;;;7.30;6.70;;;;;;;34.05;41.77;97582.33;107902;1237;96699;-88
2023/08/20 12:53:24;;;;;;;7.10;6.60;;;;;;;34.08;41.30;97580.22;107968;1237;98404;-86
2023/08/20 12:55:51;;;;;;;8.00;6.90;;;;;;;34.06;41.20;97580.50;108045;1247;96547;-87
2023/08/20 12:58:18;;;;;;;7.00;6.50;;;;;;;34.02;41.37;97582.11;107584;1241;96746;-84
2023/08/20 13:00:44;;;;;;;8.00;7.00;;;;;;;33.95;41.64;97575.74;107563;1251;96603;-90
2023/08/20 13:03:11;;;;;;;7.20;6.50;;;;;;;33.87;42.54;97575.64;107640;1242;96848;-87
2023/08/20 13:05:41;;;;;;;9.00;6.90;;;;;;;33.89;42.35;97577.28;107499;1241;101727;-77
2023/08/20 13:08:11;;;;;;;8.30;6.80;;;;;;;33.86;41.52;97576.61;107582;1240;100216;-77
2023/08/20 13:10:38;;;;;;;7.60;6.90;;;;;;;33.81;42.47;97573.54;107670;1249;100042;-78
2023/08/20 13:13:05;;;;;;;7.70;6.90;;;;;;;33.82;42.09;97573.80;107690;1249;96708;-78
2023/08/20 13:15:36;;;;;;;7.40;6.60;;;;;;;33.81;42.12;97577.61;107721;1241;97784;-86
2023/08/20 13:18:03;;;;;;;7.40;6.80;;;;;;;33.73;41.92;97574.90;107082;1255;101187;-88
2023/08/20 13:20:35;;;;;;;11.20;6.40;;;;;;;33.56;42.24;97564.91;107241;1241;100230;-88
2023/08/20 13:23:02;;;;;;;7.10;6.10;;;;;;;33.48;42.51;97566.27;107166;1254;99573;-76
2023/08/20 13:25:28;;;;;;;7.10;6.50;;;;;;;33.55;41.67;97569.34;107135;1245;97796;-77
2023/08/20 13:27:58;;;;;;;6.90;6.30;;;;;;;33.66;41.47;97573.17;107244;1241;96772;-77
2023/08/20 13:30:24;;;;;;;7.00;6.20;;;;;;;33.78;40.95;97575.52;107232;1247;101216;-92
2023/08/20 13:32:51;;;;;;;7.20;6.60;;;;;;;33.86;40.98;97577.17;107133;1244;97057;-90
2023/08/20 13:35:18;;;;;;;7.00;6.50;;;;;;;33.90;40.86;97572.48;107210;1251;96599;-91
2023/08/20 13:37:48;;;;;;;8.10;7.10;;;;;;;33.96;40.94;97572.48;107219;1244;96721;-94
2023/08/20 13:40:14;;;;;;;6.90;6.30;;;;;;;34.00;40.35;97565.87;107321;1239;97799;-80
2023/08/20 13:42:41;;;;;;;9.60;6.70;;;;;;;33.96;40.39;97566.89;107306;1244;97816;-78
2023/08/20 13:45:08;;;;;;;7.40;6.80;;;;;;;33.83;40.91;97567.19;107460;1242;96663;-81
2023/08/20 13:47:34;;;;;;;7.20;6.50;;;;;;;33.67;41.74;97563.45;106962;1248;97401;-82
2023/08/20 13:50:04;;;;;;;8.80;6.20;;;;;;;33.60;41.51;97566.94;106994;1248;97538;-79
2023/08/20 13:52:31;;;;;;;7.00;6.40;;;;;;;33.60;41.07;97569.41;106475;1251;101098;-82
2023/08/20 13:55:00;;;;;;;6.80;6.20;;;;;;;33.66;40.68;97563.91;106289;1252;97822;-80
2023/08/20 13:57:27;;;;;;;6.00;5.50;;;;;;;33.65;39.69;97562.77;106563;1251;98831;-77
2023/08/20 13:59:53;;;;;;;6.70;6.20;;;;;;;33.36;40.03;97560.39;106298;1263;97030;-92
2023/08/20 14:02:19;;;;;;;9.90;6.20;;;;;;;33.07;41.02;97561.33;106221;1258;96445;-92
2023/08/20 14:04:46;;;;;;;6.40;5.80;;;;;;;33.07;41.04;97561.79;106220;1258;97862;-77
2023/08/20 14:07:13;;;;;;;6.40;5.80;;;;;;;33.17;40.55;97563.62;106112;1254;99102;-79
2023/08/20 14:09:40;;;;;;;6.70;6.20;;;;;;;33.26;40.35;97566.02;106274;1265;96556;-78
2023/08/20 14:12:07;;;;;;;6.80;6.30;;;;;;;33.29;39.89;97555.39;106038;1268;96901;-77
2023/08/20 14:14:33;;;;;;;6.20;5.70;;;;;;;33.22;40.29;97558.16;106018;1265;96633;-80
2023/08/20 14:17:00;;;;;;;7.10;6.50;;;;;;;33.26;40.62;97557.09;106070;1257;96799;-80
2023/08/20 14:19:35;;;;;;;7.50;6.70;;;;;;;33.38;40.82;97560.70;105881;1257;96681;-89
2023/08/20 14:22:02;;;;;;;7.50;6.80;;;;;;;33.46;40.59;97558.67;106131;1251;97005;-78
2023/08/20 14:24:28;;;;;;;6.60;6.00;;;;;;;33.49;40.90;97560.46;106649;1251;97835;-78
2023/08/20 14:26:54;;;;;;;8.00;7.20;;;;;;;33.53;40.82;97559.21;107236;1246;97216;-78
2023/08/20 14:29:21;;;;;;;7.70;7.00;;;;;;;33.38;40.39;97561.13;106759;1258;96735;-77
2023/08/20 14:31:48;;;;;;;9.30;7.90;;;;;;;33.11;40.92;97556.80;107050;1248;97123;-89
2023/08/20 14:34:15;;;;;;;9.30;8.10;;;;;;;33.03;41.04;97554.71;107019;1255;97813;-87
2023/08/20 14:36:41;;;;;;;9.40;8.10;;;;;;;32.86;41.48;97551.80;106984;1255;97980;-90
2023/08/20 14:39:08;;;;;;;8.70;7.80;;;;;;;32.76;41.87;97550.61;107075;1243;96885;-92
2023/08/20 14:41:34;;;;;;;9.70;8.70;;;;;;;32.84;41.78;97552.38;107141;1247;97044;-81
2023/08/20 14:44:01;;;;;;;9.10;8.20;;;;;;;32.90;41.23;97549.13;106993;1253;97126;-79
2023/08/20 14:46:27;;;;;;;9.90;8.80;;;;;;;32.83;41.41;97548.20;107087;1249;97835;-92
2023/08/20 14:49:01;;;;;;;11.60;8.40;;;;;;;32.85;41.86;97553.69;106990;1242;98123;-91
2023/08/20 14:51:27;;;;;;;9.20;8.40;;;;;;;32.84;42.46;97557.16;107678;1241;96961;-90
2023/08/20 14:53:56;;;;;;;11.00;8.60;;;;;;;32.82;42.19;97555.02;107503;1249;97463;-91
2023/08/20 14:56:25;;;;;;;8.90;8.10;;;;;;;32.87;42.33;97555.34;107500;1244;101406;-89
2023/08/20 14:58:52;;;;;;;9.40;8.50;;;;;;;32.95;42.28;97556.06;107427;1241;100004;-81
2023/08/20 15:01:18;;;;;;;9.60;8.50;;;;;;;33.03;41.41;97554.29;107731;1233;96622;-92
2023/08/20 15:03:45;;;;;;;8.90;8.10;;;;;;;33.04;41.29;97554.09;107667;1241;96689;-92
2023/08/20 15:06:12;;;;;;;9.20;8.30;;;;;;;33.05;41.14;97554.30;107661;1240;97922;-90
2023/08/20 15:08:39;;;;;;;9.60;8.70;;;;;;;33.07;40.84;97555.39;107586;1237;96734;-90
2023/08/20 15:11:05;;;;;;;9.70;8.80;;;;;;;32.91;41.02;97559.15;107683;1243;96638;-92
2023/08/20 15:13:32;;;;;;;10.00;9.00;;;;;;;32.86;41.38;97558.02;107588;1249;96922;-92
2023/08/20 15:16:01;;;;;;;9.20;8.30;;;;;;;32.86;41.49;97558.42;107702;1241;96697;-87
2023/08/20 15:18:27;;;;;;;11.80;8.80;;;;;;;32.82;41.66;97553.91;107598;1242;96828;-87
2023/08/20 15:20:58;;;;;;;10.10;9.20;;;;;;;32.73;41.74;97555.31;107595;1249;96720;-77
2023/08/20 15:23:27;;;;;;;9.20;8.30;;;;;;;32.43;42.26;97550.02;107623;1241;97452;-78
2023/08/20 15:25:55;;;;;;;11.80;8.80;;;;;;;32.27;42.84;97552.30;107625;1241;96990;-78
2023/08/20 15:28:26;;;;;;;9.60;8.80;;;;;;;32.30;43.19;97553.98;107738;1240;101073;-78
2023/08/20 15:30:53;;;;;;;9.60;8.70;;;;;;;32.35;43.42;97551.13;107584;1241;100315;-90
2023/08/20 15:33:20;;;;;;;10.10;8.80;;;;;;;32.38;43.06;97550.67;107010;1243;98646;-90
2023/08/20 15:35:49;;;;;;;11.70;9.40;;;;;;;32.40;42.83;97550.48;107392;1244;97829;-90
2023/08/20 15:38:15;;;;;;;9.60;8.60;;;;;;;32.39;42.82;97547.41;107408;1249;96680;-80
2023/08/20 15:40:50;;;;;;;9.80;8.90;;;;;;;32.36;42.76;97544.95;107466;1249;96914;-80
2023/08/20 15:43:26;;;;;;;10.30;9.30;;;;;;;32.35;43.09;97545.15;107423;1243;99952;-80
2023/08/20 15:45:55;;;;;;;10.10;9.30;;;;;;;32.28;43.06;97542.59;107423;1238;98434;-83
2023/08/20 15:48:30;;;;;;;10.50;9.30;;;;;;;32.21;42.84;97544.66;107409;1242;96646;-80
2023/08/20 15:50:57;;;;;;;10.10;9.00;;;;;;;32.10;43.37;97545.31;107386;1243;96993;-82
2023/08/20 15:53:23;;;;;;;9.90;8.90;;;;;;;32.00;43.88;97542.75;107407;1241;96635;-81
2023/08/20 15:56:10;;;;;;;9.90;9.10;;;;;;;31.94;43.83;97542.23;107410;1242;97871;-77
2023/08/20 15:58:37;;;;;;;10.20;9.30;;;;;;;31.91;43.89;97544.82;107386;1241;100053;-77
2023/08/20 16:01:03;;;;;;;11.00;9.80;;;;;;;31.86;44.38;97546.83;107350;1242;97784;-80
2023/08/20 16:03:33;;;;;;;10.90;9.80;;;;;;;31.77;44.85;97544.98;107424;1243;96636;-79
2023/08/20 16:06:01;;;;;;;11.10;10.20;;;;;;;31.70;44.63;97546.73;107916;1248;102233;-81
2023/08/20 16:08:48;;;;;;;11.70;10.40;;;;;;;31.66;44.68;97547.30;107992;1244;100403;-80
2023/08/20 16:11:14;;;;;;;10.10;9.20;;;;;;;31.60;44.88;97547.79;107955;1242;98778;-84
2023/08/20 16:13:41;;;;;;;11.30;10.20;;;;;;;31.52;45.24;97552.31;107984;1236;97434;-80
2023/08/20 16:16:07;;;;;;;11.20;10.00;;;;;;;31.33;46.47;97552.95;108005;1237;97440;-92
2023/08/20 16:18:34;;;;;;;11.10;9.90;;;;;;;31.11;47.53;97548.30;108017;1236;97060;-91
2023/08/20 16:21:00;;;;;;;13.50;9.90;;;;;;;30.89;48.18;97549.85;107988;1246;98743;-88
2023/08/20 16:23:47;;;;;;;12.40;10.10;;;;;;;30.81;47.66;97552.95;107977;1237;96582;-90
2023/08/20 16:26:13;;;;;;;13.10;10.30;;;;;;;30.79;47.79;97556.70;107902;1240;97083;-89
2023/08/20 16:28:42;;;;;;;11.70;10.60;;;;;;;30.76;47.60;97559.72;107976;1241;97697;-85
2023/08/20 16:31:09;;;;;;;11.20;10.10;;;;;;;30.74;47.30;97558.29;107966;1233;100897;-80
2023/08/20 16:33:41;;;;;;;10.70;9.80;;;;;;;30.70;47.11;97561.52;107962;1236;97441;-85
2023/08/20 16:36:07;;;;;;;11.00;10.00;;;;;;;30.63;47.56;97557.38;107981;1236;96624;-78
2023/08/20 16:38:34;;;;;;;12.60;10.30;;;;;;;30.53;47.87;97559.16;107985;1238;96570;-80
2023/08/20 16:41:21;;;;;;;11.40;10.40;;;;;;;30.43;48.50;97560.98;108003;1237;97363;-79
2023/08/20 16:43:47;;;;;;;12.20;11.10;;;;;;;30.28;49.30;97568.11;108000;1244;101397;-81
2023/08/20 16:46:16;;;;;;;12.00;10.90;;;;;;;30.08;50.00;97567.83;107961;1233;96532;-91
2023/08/20 16:49:03;;;;;;;11.70;10.70;;;;;;;29.95;51.03;97565.27;108000;1236;96570;-89
2023/08/20 16:51:31;;;;;;;12.20;11.00;;;;;;;29.83;51.83;97567.45;108013;1237;96649;-90
2023/08/20 16:54:27;;;;;;;12.40;11.10;;;;;;;29.72;52.70;97569.20;108009;1237;101187;-86
2023/08/20 16:56:53;;;;;;;13.00;11.60;;;;;;;29.60;53.22;97565.91;107389;1239;100888;-94
2023/08/20 16:59:22;;;;;;;12.70;11.40;;;;;;;29.47;53.60;97568.02;106873;1243;97858;-90
2023/08/20 17:02:09;;;;;;;13.20;12.00;;;;;;;29.34;53.87;97572.50;106885;1247;97481;-88
2023/08/20 17:04:40;;;;;;;12.80;11.60;;;;;;;29.19;54.22;97571.98;106353;1252;97193;-87
2023/08/20 17:07:10;;;;;;;13.20;11.80;;;;;;;29.09;54.60;97573.66;106309;1265;101160;-91
2023/08/20 17:09:50;;;;;;;13.20;12.10;;;;;;;28.99;54.70;97570.69;106479;1252;101245;-93
2023/08/20 17:12:19;;;;;;;13.00;11.80;;;;;;;28.85;55.09;97572.31;106310;1254;100112;-82
2023/08/20 17:15:06;;;;;;;13.80;12.20;;;;;;;28.69;55.34;97572.16;106358;1254;96655;-85
2023/08/20 17:17:33;;;;;;;14.10;12.60;;;;;;;28.58;56.11;97571.46;106345;1254;98014;-86
2023/08/20 17:20:03;;;;;;;14.90;12.10;;;;;;;28.45;56.60;97570.46;106376;1255;97104;-85
2023/08/20 17:22:39;;;;;;;12.60;11.30;;;;;;;28.35;57.27;97571.15;106400;1253;101206;-84
2023/08/20 17:25:11;;;;;;;13.20;11.90;;;;;;;28.16;57.37;97569.84;106327;1254;98561;-85
2023/08/20 17:27:40;;;;;;;16.30;11.90;;;;;;;28.04;57.67;97575.31;106309;1254;96796;-84
2023/08/20 17:30:11;;;;;;;14.20;12.80;;;;;;;27.97;57.86;97574.71;106475;1255;97050;-87
2023/08/20 17:32:56;;;;;;;14.50;13.10;;;;;;;27.86;58.14;97570.12;106530;1250;101167;-87
2023/08/20 17:35:32;;;;;;;13.60;12.40;;;;;;;27.74;58.52;97576.42;107096;1240;101494;-78
2023/08/20 17:38:20;;;;;;;14.40;12.90;;;;;;;27.65;58.86;97577.67;107261;1244;98898;-78
2023/08/20 17:41:05;;;;;;;13.40;12.20;;;;;;;27.53;59.18;97576.13;107224;1245;97380;-83
2023/08/20 17:44:12;;;;;;;14.60;13.00;;;;;;;27.40;59.50;97580.27;107447;1248;97028;-79
2023/08/20 17:47:01;;;;;;;16.20;13.00;;;;;;;27.27;59.90;97584.48;107339;1246;101102;-89
2023/08/20 17:49:48;;;;;;;15.00;13.30;;;;;;;27.15;60.04;97586.21;106950;1254;111441;-91
2023/08/20 17:52:18;;;;;;;14.80;13.30;;;;;;;27.04;60.14;97591.15;107254;1244;97497;-89
2023/08/20 17:54:46;;;;;;;15.60;14.00;;;;;;;26.93;60.38;97592.21;106903;1248;96738;-77
2023/08/20 17:57:44;;;;;;;15.80;14.20;;;;;;;26.82;60.43;97597.02;107229;1244;97327;-76
2023/08/20 18:00:41;;;;;;;15.60;14.00;;;;;;;26.61;60.65;97606.70;107032;1255;101279;-76
2023/08/20 18:03:41;;;;;;;17.20;15.50;;;;;;;26.39;61.16;97613.38;106418;1261;100307;-88
2023/08/20 18:06:30;;;;;;;17.30;15.60;;;;;;;26.25;61.35;97613.92;106137;1257;99900;-84
2023/08/20 18:09:19;;;;;;;16.20;14.00;;;;;;;26.12;61.53;97621.85;106075;1256;96662;-84
2023/08/20 18:12:02;;;;;;;16.90;13.90;;;;;;;25.99;61.73;97623.89;106006;1260;97407;-83